Time;durP1;ratioP1;P1;durP2;ratioP2;P2;SDS_P1;SDS_P2;PMS_P1;PMS_P2;Temp;Humidity;BMP_temperature;BMP_pressure;BME280_temperature;BME280_humidity;BME280_pressure;Samples;Min_cycle;Max_cycle;Signal;HPM_P1;HPM_P2
2020/01/04 00:00:58;;;;;;;4.2;2.3;;;;;;;6.89;82.57324;96085.88;;;;
2020/01/04 00:01:59;;;;;;;4.2;2.3;;;;;;;6.89;82.57324;96085.88;;;;
2020/01/04 00:03:00;;;;;;;4.2;2.3;;;;;;;6.89;82.57324;96085.88;;;;
2020/01/04 00:04:00;;;;;;;4.2;2.3;;;;;;;6.89;82.57324;96085.88;;;;
2020/01/04 00:05:01;;;;;;;4.2;2.3;;;;;;;6.89;82.57324;96085.88;;;;
2020/01/04 00:06:02;;;;;;;4.15;2.65;;;;;;;6.75;83.14941;96079.13;;;;
2020/01/04 00:07:02;;;;;;;4.15;2.65;;;;;;;6.75;83.14941;96079.13;;;;
2020/01/04 00:08:03;;;;;;;4.15;2.65;;;;;;;6.75;83.14941;96079.13;;;;
2020/01/04 00:09:03;;;;;;;4.15;2.65;;;;;;;6.75;83.14941;96079.13;;;;
2020/01/04 00:10:05;;;;;;;4.15;2.65;;;;;;;6.75;83.14941;96079.13;;;;
2020/01/04 00:11:06;;;;;;;4.15;2.65;;;;;;;6.75;83.14941;96079.13;;;;
2020/01/04 00:12:07;;;;;;;4.15;2.65;;;;;;;6.75;83.14941;96079.13;;;;
2020/01/04 00:13:07;;;;;;;4.15;2.65;;;;;;;6.75;83.14941;96079.13;;;;
2020/01/04 00:14:08;;;;;;;4.15;2.65;;;;;;;6.75;83.14941;96079.13;;;;
2020/01/04 00:15:08;;;;;;;4.15;2.65;;;;;;;6.75;83.14941;96079.13;;;;
2020/01/04 00:16:09;;;;;;;4.15;2.65;;;;;;;6.75;83.14941;96079.13;;;;
2020/01/04 00:17:09;;;;;;;4.15;2.75;;;;;;;6.58;84.68164;96079.51;;;;
2020/01/04 00:18:10;;;;;;;4.15;2.75;;;;;;;6.58;84.68164;96079.51;;;;
2020/01/04 00:19:10;;;;;;;4.15;2.75;;;;;;;6.58;84.68164;96079.51;;;;
2020/01/04 00:20:11;;;;;;;4.15;2.75;;;;;;;6.58;84.68164;96079.51;;;;
2020/01/04 00:21:11;;;;;;;4.15;2.75;;;;;;;6.58;84.68164;96079.51;;;;
2020/01/04 00:22:12;;;;;;;4.15;2.75;;;;;;;6.58;84.68164;96079.51;;;;
2020/01/04 00:23:12;;;;;;;4.15;2.75;;;;;;;6.58;84.68164;96079.51;;;;
2020/01/04 00:24:13;;;;;;;4.15;2.75;;;;;;;6.58;84.68164;96079.51;;;;
2020/01/04 00:25:13;;;;;;;4.15;2.75;;;;;;;6.58;84.68164;96079.51;;;;
2020/01/04 00:26:13;;;;;;;4.15;2.75;;;;;;;6.58;84.68164;96079.51;;;;
2020/01/04 00:27:14;;;;;;;3.65;2.55;;;;;;;6.33;85.79297;96078.22;;;;
2020/01/04 00:28:14;;;;;;;3.65;2.55;;;;;;;6.33;85.79297;96078.22;;;;
2020/01/04 00:29:32;;;;;;;3.65;2.55;;;;;;;6.33;85.79297;96078.22;;;;
2020/01/04 00:31:38;;;;;;;3.65;2.55;;;;;;;6.33;85.79297;96078.22;;;;
2020/01/04 00:32:41;;;;;;;3.65;2.55;;;;;;;6.33;85.79297;96078.22;;;;
2020/01/04 00:33:41;;;;;;;3.65;2.55;;;;;;;6.33;85.79297;96078.22;;;;
2020/01/04 00:34:42;;;;;;;3.65;2.55;;;;;;;6.33;85.79297;96078.22;;;;
2020/01/04 00:35:42;;;;;;;3.65;2.55;;;;;;;6.33;85.79297;96078.22;;;;
2020/01/04 00:36:43;;;;;;;3.65;2.55;;;;;;;6.33;85.79297;96078.22;;;;
2020/01/04 00:37:43;;;;;;;2.75;2.25;;;;;;;6.19;87.31836;96061.14;;;;
2020/01/04 00:38:44;;;;;;;2.75;2.25;;;;;;;6.19;87.31836;96061.14;;;;
2020/01/04 00:39:44;;;;;;;2.75;2.25;;;;;;;6.19;87.31836;96061.14;;;;
2020/01/04 00:40:45;;;;;;;2.75;2.25;;;;;;;6.19;87.31836;96061.14;;;;
2020/01/04 00:41:45;;;;;;;2.75;2.25;;;;;;;6.19;87.31836;96061.14;;;;
2020/01/04 00:42:45;;;;;;;2.75;2.25;;;;;;;6.19;87.31836;96061.14;;;;
2020/01/04 00:43:46;;;;;;;2.75;2.25;;;;;;;6.19;87.31836;96061.14;;;;
2020/01/04 00:44:46;;;;;;;2.75;2.25;;;;;;;6.19;87.31836;96061.14;;;;
2020/01/04 00:45:47;;;;;;;2.75;2.25;;;;;;;6.19;87.31836;96061.14;;;;
2020/01/04 00:46:47;;;;;;;2.75;2.25;;;;;;;6.19;87.31836;96061.14;;;;
2020/01/04 00:47:48;;;;;;;2.75;2.25;;;;;;;6.19;87.31836;96061.14;;;;
2020/01/04 00:48:48;;;;;;;3.5;2.35;;;;;;;6.05;88.57422;96072.33;;;;
2020/01/04 00:49:49;;;;;;;3.5;2.35;;;;;;;6.05;88.57422;96072.33;;;;
2020/01/04 00:50:49;;;;;;;3.5;2.35;;;;;;;6.05;88.57422;96072.33;;;;
2020/01/04 00:51:50;;;;;;;3.5;2.35;;;;;;;6.05;88.57422;96072.33;;;;
2020/01/04 00:52:50;;;;;;;3.5;2.35;;;;;;;6.05;88.57422;96072.33;;;;
2020/01/04 00:53:51;;;;;;;3.5;2.35;;;;;;;6.05;88.57422;96072.33;;;;
2020/01/04 00:54:51;;;;;;;3.5;2.35;;;;;;;6.05;88.57422;96072.33;;;;
2020/01/04 00:55:52;;;;;;;3.5;2.35;;;;;;;6.05;88.57422;96072.33;;;;
2020/01/04 00:56:52;;;;;;;3.5;2.35;;;;;;;6.05;88.57422;96072.33;;;;
2020/01/04 00:57:53;;;;;;;3.5;2.35;;;;;;;6.05;88.57422;96072.33;;;;
2020/01/04 00:58:53;;;;;;;3.5;2.45;;;;;;;6.02;89.4248;96078.07;;;;
2020/01/04 00:59:54;;;;;;;3.5;2.45;;;;;;;6.02;89.4248;96078.07;;;;
2020/01/04 01:00:54;;;;;;;3.5;2.45;;;;;;;6.02;89.4248;96078.07;;;;
2020/01/04 01:01:55;;;;;;;3.5;2.45;;;;;;;6.02;89.4248;96078.07;;;;
2020/01/04 01:02:55;;;;;;;3.5;2.45;;;;;;;6.02;89.4248;96078.07;;;;
2020/01/04 01:03:57;;;;;;;3.5;2.45;;;;;;;6.02;89.4248;96078.07;;;;
2020/01/04 01:04:58;;;;;;;3.5;2.45;;;;;;;6.02;89.4248;96078.07;;;;
2020/01/04 01:05:58;;;;;;;3.5;2.45;;;;;;;6.02;89.4248;96078.07;;;;
2020/01/04 01:06:59;;;;;;;3.5;2.45;;;;;;;6.02;89.4248;96078.07;;;;
2020/01/04 01:07:59;;;;;;;3.5;2.45;;;;;;;6.02;89.4248;96078.07;;;;
2020/01/04 01:09:00;;;;;;;3.5;2.45;;;;;;;6.02;89.4248;96078.07;;;;
2020/01/04 01:10:00;;;;;;;2.9;2.299999;;;;;;;5.97;89.87598;96082.22;;;;
2020/01/04 01:11:01;;;;;;;2.9;2.299999;;;;;;;5.97;89.87598;96082.22;;;;
2020/01/04 01:12:02;;;;;;;2.9;2.299999;;;;;;;5.97;89.87598;96082.22;;;;
2020/01/04 01:13:02;;;;;;;2.9;2.299999;;;;;;;5.97;89.87598;96082.22;;;;
2020/01/04 01:14:03;;;;;;;2.9;2.299999;;;;;;;5.97;89.87598;96082.22;;;;
2020/01/04 01:15:04;;;;;;;2.9;2.299999;;;;;;;5.97;89.87598;96082.22;;;;
2020/01/04 01:16:09;;;;;;;2.9;2.299999;;;;;;;5.97;89.87598;96082.22;;;;
2020/01/04 01:17:09;;;;;;;2.9;2.299999;;;;;;;5.97;89.87598;96082.22;;;;
2020/01/04 01:18:10;;;;;;;2.9;2.299999;;;;;;;5.97;89.87598;96082.22;;;;
2020/01/04 01:19:10;;;;;;;2.9;2.299999;;;;;;;5.97;89.87598;96082.22;;;;
2020/01/04 01:20:11;;;;;;;3.3;2.1;;;;;;;6.02;90.30762;96081.25;;;;
2020/01/04 01:21:15;;;;;;;3.3;2.1;;;;;;;6.02;90.30762;96081.25;;;;
2020/01/04 01:22:15;;;;;;;3.3;2.1;;;;;;;6.02;90.30762;96081.25;;;;
2020/01/04 01:23:16;;;;;;;3.3;2.1;;;;;;;6.02;90.30762;96081.25;;;;
2020/01/04 01:24:16;;;;;;;3.3;2.1;;;;;;;6.02;90.30762;96081.25;;;;
2020/01/04 01:25:16;;;;;;;3.3;2.1;;;;;;;6.02;90.30762;96081.25;;;;
2020/01/04 01:26:17;;;;;;;3.3;2.1;;;;;;;6.02;90.30762;96081.25;;;;
2020/01/04 01:27:17;;;;;;;3.3;2.1;;;;;;;6.02;90.30762;96081.25;;;;
2020/01/04 01:28:18;;;;;;;3.3;2.1;;;;;;;6.02;90.30762;96081.25;;;;
2020/01/04 01:29:18;;;;;;;3.3;2.1;;;;;;;6.02;90.30762;96081.25;;;;
2020/01/04 01:30:19;;;;;;;3.3;2.1;;;;;;;6.02;90.30762;96081.25;;;;
2020/01/04 01:31:19;;;;;;;3.3;2.35;;;;;;;5.95;91.14746;96078.09;;;;
2020/01/04 01:32:20;;;;;;;3.3;2.35;;;;;;;5.95;91.14746;96078.09;;;;
2020/01/04 01:33:20;;;;;;;3.3;2.35;;;;;;;5.95;91.14746;96078.09;;;;
2020/01/04 01:34:21;;;;;;;3.3;2.35;;;;;;;5.95;91.14746;96078.09;;;;
2020/01/04 01:35:22;;;;;;;3.3;2.35;;;;;;;5.95;91.14746;96078.09;;;;
2020/01/04 01:36:23;;;;;;;3.3;2.35;;;;;;;5.95;91.14746;96078.09;;;;
2020/01/04 01:37:23;;;;;;;3.3;2.35;;;;;;;5.95;91.14746;96078.09;;;;
2020/01/04 01:38:24;;;;;;;3.3;2.35;;;;;;;5.95;91.14746;96078.09;;;;
2020/01/04 01:39:24;;;;;;;3.3;2.35;;;;;;;5.95;91.14746;96078.09;;;;
2020/01/04 01:41:30;;;;;;;3.3;2.35;;;;;;;5.95;91.14746;96078.09;;;;
2020/01/04 01:42:31;;;;;;;4;2.25;;;;;;;5.96;91.6123;96080.16;;;;
2020/01/04 01:43:31;;;;;;;4;2.25;;;;;;;5.96;91.6123;96080.16;;;;
2020/01/04 01:44:32;;;;;;;4;2.25;;;;;;;5.96;91.6123;96080.16;;;;
2020/01/04 01:45:32;;;;;;;4;2.25;;;;;;;5.96;91.6123;96080.16;;;;
2020/01/04 01:46:33;;;;;;;4;2.25;;;;;;;5.96;91.6123;96080.16;;;;
2020/01/04 01:47:33;;;;;;;4;2.25;;;;;;;5.96;91.6123;96080.16;;;;
2020/01/04 01:48:33;;;;;;;4;2.25;;;;;;;5.96;91.6123;96080.16;;;;
2020/01/04 01:49:38;;;;;;;4;2.25;;;;;;;5.96;91.6123;96080.16;;;;
2020/01/04 01:50:47;;;;;;;4;2.25;;;;;;;5.96;91.6123;96080.16;;;;
2020/01/04 01:51:48;;;;;;;3.2;2.25;;;;;;;5.97;91.66699;96088.11;;;;
2020/01/04 01:52:49;;;;;;;3.2;2.25;;;;;;;5.97;91.66699;96088.11;;;;
2020/01/04 01:53:50;;;;;;;3.2;2.25;;;;;;;5.97;91.66699;96088.11;;;;
2020/01/04 01:54:52;;;;;;;3.2;2.25;;;;;;;5.97;91.66699;96088.11;;;;
2020/01/04 01:55:53;;;;;;;3.2;2.25;;;;;;;5.97;91.66699;96088.11;;;;
2020/01/04 01:56:53;;;;;;;3.2;2.25;;;;;;;5.97;91.66699;96088.11;;;;
2020/01/04 01:57:54;;;;;;;3.2;2.25;;;;;;;5.97;91.66699;96088.11;;;;
2020/01/04 01:58:54;;;;;;;3.2;2.25;;;;;;;5.97;91.66699;96088.11;;;;
2020/01/04 01:59:55;;;;;;;3.2;2.25;;;;;;;5.97;91.66699;96088.11;;;;
2020/01/04 02:00:55;;;;;;;3.2;2.25;;;;;;;5.97;91.66699;96088.11;;;;
2020/01/04 02:01:56;;;;;;;3.2;2.25;;;;;;;5.97;91.66699;96088.11;;;;
2020/01/04 02:02:56;;;;;;;3;2.5;;;;;;;6.06;91.62402;96096.79;;;;
2020/01/04 02:03:56;;;;;;;3;2.5;;;;;;;6.06;91.62402;96096.79;;;;
2020/01/04 02:04:57;;;;;;;3;2.5;;;;;;;6.06;91.62402;96096.79;;;;
2020/01/04 02:05:57;;;;;;;3;2.5;;;;;;;6.06;91.62402;96096.79;;;;
2020/01/04 02:06:58;;;;;;;3;2.5;;;;;;;6.06;91.62402;96096.79;;;;
2020/01/04 02:07:58;;;;;;;3;2.5;;;;;;;6.06;91.62402;96096.79;;;;
2020/01/04 02:08:59;;;;;;;3;2.5;;;;;;;6.06;91.62402;96096.79;;;;
2020/01/04 02:09:59;;;;;;;3;2.5;;;;;;;6.06;91.62402;96096.79;;;;
2020/01/04 02:11:00;;;;;;;3;2.5;;;;;;;6.06;91.62402;96096.79;;;;
2020/01/04 02:12:00;;;;;;;3;2.5;;;;;;;6.06;91.62402;96096.79;;;;
2020/01/04 02:13:00;;;;;;;3.2;2.55;;;;;;;6.04;91.5127;96096.64;;;;
2020/01/04 02:14:01;;;;;;;3.2;2.55;;;;;;;6.04;91.5127;96096.64;;;;
2020/01/04 02:15:01;;;;;;;3.2;2.55;;;;;;;6.04;91.5127;96096.64;;;;
2020/01/04 02:16:02;;;;;;;3.2;2.55;;;;;;;6.04;91.5127;96096.64;;;;
2020/01/04 02:17:03;;;;;;;3.2;2.55;;;;;;;6.04;91.5127;96096.64;;;;
2020/01/04 02:18:03;;;;;;;3.2;2.55;;;;;;;6.04;91.5127;96096.64;;;;
2020/01/04 02:19:03;;;;;;;3.2;2.55;;;;;;;6.04;91.5127;96096.64;;;;
2020/01/04 02:20:04;;;;;;;3.2;2.55;;;;;;;6.04;91.5127;96096.64;;;;
2020/01/04 02:21:04;;;;;;;3.2;2.55;;;;;;;6.04;91.5127;96096.64;;;;
2020/01/04 02:22:05;;;;;;;3.2;2.55;;;;;;;6.04;91.5127;96096.64;;;;
2020/01/04 02:23:05;;;;;;;3.2;2.55;;;;;;;6.04;91.5127;96096.64;;;;
2020/01/04 02:24:06;;;;;;;4.6;3.2;;;;;;;6.01;92.34961;96097.41;;;;
2020/01/04 02:25:06;;;;;;;4.6;3.2;;;;;;;6.01;92.34961;96097.41;;;;
2020/01/04 02:26:07;;;;;;;4.6;3.2;;;;;;;6.01;92.34961;96097.41;;;;
2020/01/04 02:27:07;;;;;;;4.6;3.2;;;;;;;6.01;92.34961;96097.41;;;;
2020/01/04 02:28:08;;;;;;;4.6;3.2;;;;;;;6.01;92.34961;96097.41;;;;
2020/01/04 02:29:08;;;;;;;4.6;3.2;;;;;;;6.01;92.34961;96097.41;;;;
2020/01/04 02:30:08;;;;;;;4.6;3.2;;;;;;;6.01;92.34961;96097.41;;;;
2020/01/04 02:31:09;;;;;;;4.6;3.2;;;;;;;6.01;92.34961;96097.41;;;;
2020/01/04 02:32:09;;;;;;;4.6;3.2;;;;;;;6.01;92.34961;96097.41;;;;
2020/01/04 02:33:10;;;;;;;4.6;3.2;;;;;;;6.01;92.34961;96097.41;;;;
2020/01/04 02:34:10;;;;;;;4.6;3.2;;;;;;;6.01;92.34961;96097.41;;;;
2020/01/04 02:35:11;;;;;;;4.25;3.15;;;;;;;5.89;93.42871;96099.77;;;;
2020/01/04 02:36:11;;;;;;;4.25;3.15;;;;;;;5.89;93.42871;96099.77;;;;
2020/01/04 02:37:12;;;;;;;4.25;3.15;;;;;;;5.89;93.42871;96099.77;;;;
2020/01/04 02:38:12;;;;;;;4.25;3.15;;;;;;;5.89;93.42871;96099.77;;;;
2020/01/04 02:39:13;;;;;;;4.25;3.15;;;;;;;5.89;93.42871;96099.77;;;;
2020/01/04 02:40:13;;;;;;;4.25;3.15;;;;;;;5.89;93.42871;96099.77;;;;
2020/01/04 02:41:14;;;;;;;4.25;3.15;;;;;;;5.89;93.42871;96099.77;;;;
2020/01/04 02:42:14;;;;;;;4.25;3.15;;;;;;;5.89;93.42871;96099.77;;;;
2020/01/04 02:43:15;;;;;;;4.25;3.15;;;;;;;5.89;93.42871;96099.77;;;;
2020/01/04 02:44:15;;;;;;;4.25;3.15;;;;;;;5.89;93.42871;96099.77;;;;
2020/01/04 02:45:16;;;;;;;4.75;3.15;;;;;;;5.87;94.51855;96089.82;;;;
2020/01/04 02:46:16;;;;;;;4.75;3.15;;;;;;;5.87;94.51855;96089.82;;;;
2020/01/04 02:47:30;;;;;;;4.75;3.15;;;;;;;5.87;94.51855;96089.82;;;;
2020/01/04 02:48:30;;;;;;;4.75;3.15;;;;;;;5.87;94.51855;96089.82;;;;
2020/01/04 02:49:31;;;;;;;4.75;3.15;;;;;;;5.87;94.51855;96089.82;;;;
2020/01/04 02:50:31;;;;;;;4.75;3.15;;;;;;;5.87;94.51855;96089.82;;;;
2020/01/04 02:51:32;;;;;;;4.75;3.15;;;;;;;5.87;94.51855;96089.82;;;;
2020/01/04 02:52:32;;;;;;;4.75;3.15;;;;;;;5.87;94.51855;96089.82;;;;
2020/01/04 02:53:33;;;;;;;4.75;3.15;;;;;;;5.87;94.51855;96089.82;;;;
2020/01/04 02:54:33;;;;;;;4.75;3.15;;;;;;;5.87;94.51855;96089.82;;;;
2020/01/04 02:55:34;;;;;;;4.3;3.55;;;;;;;5.81;94.95898;96102.5;;;;
2020/01/04 02:56:34;;;;;;;4.3;3.55;;;;;;;5.81;94.95898;96102.5;;;;
2020/01/04 02:57:35;;;;;;;4.3;3.55;;;;;;;5.81;94.95898;96102.5;;;;
2020/01/04 02:58:35;;;;;;;4.3;3.55;;;;;;;5.81;94.95898;96102.5;;;;
2020/01/04 02:59:36;;;;;;;4.3;3.55;;;;;;;5.81;94.95898;96102.5;;;;
2020/01/04 03:00:36;;;;;;;4.3;3.55;;;;;;;5.81;94.95898;96102.5;;;;
2020/01/04 03:01:37;;;;;;;4.3;3.55;;;;;;;5.81;94.95898;96102.5;;;;
2020/01/04 03:02:37;;;;;;;4.3;3.55;;;;;;;5.81;94.95898;96102.5;;;;
2020/01/04 03:03:38;;;;;;;4.3;3.55;;;;;;;5.81;94.95898;96102.5;;;;
2020/01/04 03:04:38;;;;;;;4.3;3.55;;;;;;;5.81;94.95898;96102.5;;;;
2020/01/04 03:05:39;;;;;;;4.3;3.55;;;;;;;5.81;94.95898;96102.5;;;;
2020/01/04 03:06:39;;;;;;;4.35;3.75;;;;;;;5.82;95.48633;96076.97;;;;
2020/01/04 03:07:40;;;;;;;4.35;3.75;;;;;;;5.82;95.48633;96076.97;;;;
2020/01/04 03:08:40;;;;;;;4.35;3.75;;;;;;;5.82;95.48633;96076.97;;;;
2020/01/04 03:09:41;;;;;;;4.35;3.75;;;;;;;5.82;95.48633;96076.97;;;;
2020/01/04 03:10:41;;;;;;;4.35;3.75;;;;;;;5.82;95.48633;96076.97;;;;
2020/01/04 03:11:42;;;;;;;4.35;3.75;;;;;;;5.82;95.48633;96076.97;;;;
2020/01/04 03:13:47;;;;;;;4.35;3.75;;;;;;;5.82;95.48633;96076.97;;;;
2020/01/04 03:14:50;;;;;;;4.35;3.75;;;;;;;5.82;95.48633;96076.97;;;;
2020/01/04 03:15:54;;;;;;;4.35;3.75;;;;;;;5.82;95.48633;96076.97;;;;
2020/01/04 03:16:55;;;;;;;6.299999;4.15;;;;;;;5.78;96.56934;96077.93;;;;
2020/01/04 03:17:55;;;;;;;6.299999;4.15;;;;;;;5.78;96.56934;96077.93;;;;
2020/01/04 03:18:56;;;;;;;6.299999;4.15;;;;;;;5.78;96.56934;96077.93;;;;
2020/01/04 03:19:56;;;;;;;6.299999;4.15;;;;;;;5.78;96.56934;96077.93;;;;
2020/01/04 03:20:57;;;;;;;6.299999;4.15;;;;;;;5.78;96.56934;96077.93;;;;
2020/01/04 03:21:57;;;;;;;6.299999;4.15;;;;;;;5.78;96.56934;96077.93;;;;
2020/01/04 03:22:58;;;;;;;6.299999;4.15;;;;;;;5.78;96.56934;96077.93;;;;
2020/01/04 03:23:58;;;;;;;6.299999;4.15;;;;;;;5.78;96.56934;96077.93;;;;
2020/01/04 03:24:58;;;;;;;6.299999;4.15;;;;;;;5.78;96.56934;96077.93;;;;
2020/01/04 03:25:59;;;;;;;6.299999;4.15;;;;;;;5.78;96.56934;96077.93;;;;
2020/01/04 03:26:59;;;;;;;6.299999;4.15;;;;;;;5.78;96.56934;96077.93;;;;
2020/01/04 03:28:00;;;;;;;5.85;4.35;;;;;;;5.81;96.81934;96073.56;;;;
2020/01/04 03:29:00;;;;;;;5.85;4.35;;;;;;;5.81;96.81934;96073.56;;;;
2020/01/04 03:30:01;;;;;;;5.85;4.35;;;;;;;5.81;96.81934;96073.56;;;;
2020/01/04 03:31:01;;;;;;;5.85;4.35;;;;;;;5.81;96.81934;96073.56;;;;
2020/01/04 03:32:02;;;;;;;5.85;4.35;;;;;;;5.81;96.81934;96073.56;;;;
2020/01/04 03:33:02;;;;;;;5.85;4.35;;;;;;;5.81;96.81934;96073.56;;;;
2020/01/04 03:34:03;;;;;;;5.85;4.35;;;;;;;5.81;96.81934;96073.56;;;;
2020/01/04 03:35:03;;;;;;;5.85;4.35;;;;;;;5.81;96.81934;96073.56;;;;
2020/01/04 03:36:04;;;;;;;5.85;4.35;;;;;;;5.81;96.81934;96073.56;;;;
2020/01/04 03:37:04;;;;;;;5.85;4.35;;;;;;;5.81;96.81934;96073.56;;;;
2020/01/04 03:38:05;;;;;;;6.75;4.7;;;;;;;5.77;96.80078;96078.05;;;;
2020/01/04 03:39:05;;;;;;;6.75;4.7;;;;;;;5.77;96.80078;96078.05;;;;
2020/01/04 03:40:06;;;;;;;6.75;4.7;;;;;;;5.77;96.80078;96078.05;;;;
2020/01/04 03:41:06;;;;;;;6.75;4.7;;;;;;;5.77;96.80078;96078.05;;;;
2020/01/04 03:42:10;;;;;;;6.75;4.7;;;;;;;5.77;96.80078;96078.05;;;;
2020/01/04 03:43:12;;;;;;;6.75;4.7;;;;;;;5.77;96.80078;96078.05;;;;
2020/01/04 03:44:13;;;;;;;6.75;4.7;;;;;;;5.77;96.80078;96078.05;;;;
2020/01/04 03:45:14;;;;;;;6.75;4.7;;;;;;;5.77;96.80078;96078.05;;;;
2020/01/04 03:46:15;;;;;;;6.75;4.7;;;;;;;5.77;96.80078;96078.05;;;;
2020/01/04 03:47:16;;;;;;;6.75;4.7;;;;;;;5.77;96.80078;96078.05;;;;
2020/01/04 03:48:16;;;;;;;6.75;4.7;;;;;;;5.77;96.80078;96078.05;;;;
2020/01/04 03:49:24;;;;;;;5.750001;5;;;;;;;5.79;96.86816;96081.76;;;;
2020/01/04 03:50:28;;;;;;;5.750001;5;;;;;;;5.79;96.86816;96081.76;;;;
2020/01/04 03:51:29;;;;;;;5.750001;5;;;;;;;5.79;96.86816;96081.76;;;;
2020/01/04 03:52:30;;;;;;;5.750001;5;;;;;;;5.79;96.86816;96081.76;;;;
2020/01/04 03:53:32;;;;;;;5.750001;5;;;;;;;5.79;96.86816;96081.76;;;;
2020/01/04 03:54:33;;;;;;;5.750001;5;;;;;;;5.79;96.86816;96081.76;;;;
2020/01/04 03:55:33;;;;;;;5.750001;5;;;;;;;5.79;96.86816;96081.76;;;;
2020/01/04 03:56:34;;;;;;;5.750001;5;;;;;;;5.79;96.86816;96081.76;;;;
2020/01/04 03:57:43;;;;;;;5.750001;5;;;;;;;5.79;96.86816;96081.76;;;;
2020/01/04 03:58:44;;;;;;;5.750001;5;;;;;;;5.79;96.86816;96081.76;;;;
2020/01/04 03:59:47;;;;;;;5.749999;4.199999;;;;;;;5.78;97.28418;96083.7;;;;
2020/01/04 04:00:47;;;;;;;5.749999;4.199999;;;;;;;5.78;97.28418;96083.7;;;;
2020/01/04 04:01:48;;;;;;;5.749999;4.199999;;;;;;;5.78;97.28418;96083.7;;;;
2020/01/04 04:02:52;;;;;;;5.749999;4.199999;;;;;;;5.78;97.28418;96083.7;;;;
2020/01/04 04:03:56;;;;;;;5.749999;4.199999;;;;;;;5.78;97.28418;96083.7;;;;
2020/01/04 04:04:57;;;;;;;5.749999;4.199999;;;;;;;5.78;97.28418;96083.7;;;;
2020/01/04 04:05:59;;;;;;;5.749999;4.199999;;;;;;;5.78;97.28418;96083.7;;;;
2020/01/04 04:06:59;;;;;;;5.749999;4.199999;;;;;;;5.78;97.28418;96083.7;;;;
2020/01/04 04:08:00;;;;;;;5.749999;4.199999;;;;;;;5.78;97.28418;96083.7;;;;
2020/01/04 04:09:00;;;;;;;5.749999;4.199999;;;;;;;5.78;97.28418;96083.7;;;;
2020/01/04 04:10:00;;;;;;;4.849999;4.100001;;;;;;;5.83;97.49609;96062.56;;;;
2020/01/04 04:11:01;;;;;;;4.849999;4.100001;;;;;;;5.83;97.49609;96062.56;;;;
2020/01/04 04:12:01;;;;;;;4.849999;4.100001;;;;;;;5.83;97.49609;96062.56;;;;
2020/01/04 04:13:02;;;;;;;4.849999;4.100001;;;;;;;5.83;97.49609;96062.56;;;;
2020/01/04 04:14:02;;;;;;;4.849999;4.100001;;;;;;;5.83;97.49609;96062.56;;;;
2020/01/04 04:15:03;;;;;;;4.849999;4.100001;;;;;;;5.83;97.49609;96062.56;;;;
2020/01/04 04:16:04;;;;;;;4.849999;4.100001;;;;;;;5.83;97.49609;96062.56;;;;
2020/01/04 04:17:04;;;;;;;4.849999;4.100001;;;;;;;5.83;97.49609;96062.56;;;;
2020/01/04 04:18:05;;;;;;;4.849999;4.100001;;;;;;;5.83;97.49609;96062.56;;;;
2020/01/04 04:19:05;;;;;;;4.849999;4.100001;;;;;;;5.83;97.49609;96062.56;;;;
2020/01/04 04:20:06;;;;;;;4.849999;4.100001;;;;;;;5.83;97.49609;96062.56;;;;
2020/01/04 04:21:06;;;;;;;4.650001;3.750001;;;;;;;5.79;97.53223;96072.8;;;;
2020/01/04 04:22:06;;;;;;;4.650001;3.750001;;;;;;;5.79;97.53223;96072.8;;;;
2020/01/04 04:23:07;;;;;;;4.650001;3.750001;;;;;;;5.79;97.53223;96072.8;;;;
2020/01/04 04:24:08;;;;;;;4.650001;3.750001;;;;;;;5.79;97.53223;96072.8;;;;
2020/01/04 04:25:08;;;;;;;4.650001;3.750001;;;;;;;5.79;97.53223;96072.8;;;;
2020/01/04 04:26:08;;;;;;;4.650001;3.750001;;;;;;;5.79;97.53223;96072.8;;;;
2020/01/04 04:27:09;;;;;;;4.650001;3.750001;;;;;;;5.79;97.53223;96072.8;;;;
2020/01/04 04:28:09;;;;;;;4.650001;3.750001;;;;;;;5.79;97.53223;96072.8;;;;
2020/01/04 04:29:10;;;;;;;4.650001;3.750001;;;;;;;5.79;97.53223;96072.8;;;;
2020/01/04 04:30:10;;;;;;;4.650001;3.750001;;;;;;;5.79;97.53223;96072.8;;;;
2020/01/04 04:31:11;;;;;;;4.5;3.299999;;;;;;;5.84;98.15234;96076.31;;;;
2020/01/04 04:32:11;;;;;;;4.5;3.299999;;;;;;;5.84;98.15234;96076.31;;;;
2020/01/04 04:33:12;;;;;;;4.5;3.299999;;;;;;;5.84;98.15234;96076.31;;;;
2020/01/04 04:34:12;;;;;;;4.5;3.299999;;;;;;;5.84;98.15234;96076.31;;;;
2020/01/04 04:35:13;;;;;;;4.5;3.299999;;;;;;;5.84;98.15234;96076.31;;;;
2020/01/04 04:36:17;;;;;;;4.5;3.299999;;;;;;;5.84;98.15234;96076.31;;;;
2020/01/04 04:37:25;;;;;;;4.5;3.299999;;;;;;;5.84;98.15234;96076.31;;;;
2020/01/04 04:38:34;;;;;;;4.5;3.299999;;;;;;;5.84;98.15234;96076.31;;;;
2020/01/04 04:39:37;;;;;;;4.5;3.299999;;;;;;;5.84;98.15234;96076.31;;;;
2020/01/04 04:40:38;;;;;;;4.5;3.299999;;;;;;;5.84;98.15234;96076.31;;;;
2020/01/04 04:41:39;;;;;;;4.6;3.15;;;;;;;5.82;98.39746;96060.47;;;;
2020/01/04 04:42:39;;;;;;;4.6;3.15;;;;;;;5.82;98.39746;96060.47;;;;
2020/01/04 04:43:40;;;;;;;4.6;3.15;;;;;;;5.82;98.39746;96060.47;;;;
2020/01/04 04:44:40;;;;;;;4.6;3.15;;;;;;;5.82;98.39746;96060.47;;;;
2020/01/04 04:45:41;;;;;;;4.6;3.15;;;;;;;5.82;98.39746;96060.47;;;;
2020/01/04 04:46:41;;;;;;;4.6;3.15;;;;;;;5.82;98.39746;96060.47;;;;
2020/01/04 04:47:42;;;;;;;4.6;3.15;;;;;;;5.82;98.39746;96060.47;;;;
2020/01/04 04:48:42;;;;;;;4.6;3.15;;;;;;;5.82;98.39746;96060.47;;;;
2020/01/04 04:49:43;;;;;;;4.6;3.15;;;;;;;5.82;98.39746;96060.47;;;;
2020/01/04 04:50:43;;;;;;;4.6;3.15;;;;;;;5.82;98.39746;96060.47;;;;
2020/01/04 04:51:44;;;;;;;4.6;3.15;;;;;;;5.82;98.39746;96060.47;;;;
2020/01/04 04:52:44;;;;;;;3.35;2.75;;;;;;;5.89;98.875;96080.17;;;;
2020/01/04 04:53:44;;;;;;;3.35;2.75;;;;;;;5.89;98.875;96080.17;;;;
2020/01/04 04:54:45;;;;;;;3.35;2.75;;;;;;;5.89;98.875;96080.17;;;;
2020/01/04 04:55:45;;;;;;;3.35;2.75;;;;;;;5.89;98.875;96080.17;;;;
2020/01/04 04:56:46;;;;;;;3.35;2.75;;;;;;;5.89;98.875;96080.17;;;;
2020/01/04 04:57:46;;;;;;;3.35;2.75;;;;;;;5.89;98.875;96080.17;;;;
2020/01/04 04:58:47;;;;;;;3.35;2.75;;;;;;;5.89;98.875;96080.17;;;;
2020/01/04 04:59:47;;;;;;;3.35;2.75;;;;;;;5.89;98.875;96080.17;;;;
2020/01/04 05:00:48;;;;;;;3.35;2.75;;;;;;;5.89;98.875;96080.17;;;;
2020/01/04 05:01:48;;;;;;;3.35;2.75;;;;;;;5.89;98.875;96080.17;;;;
2020/01/04 05:02:49;;;;;;;3.85;3.1;;;;;;;5.87;98.68164;96078.18;;;;
2020/01/04 05:03:49;;;;;;;3.85;3.1;;;;;;;5.87;98.68164;96078.18;;;;
2020/01/04 05:04:50;;;;;;;3.85;3.1;;;;;;;5.87;98.68164;96078.18;;;;
2020/01/04 05:05:50;;;;;;;3.85;3.1;;;;;;;5.87;98.68164;96078.18;;;;
2020/01/04 05:06:51;;;;;;;3.85;3.1;;;;;;;5.87;98.68164;96078.18;;;;
2020/01/04 05:07:51;;;;;;;3.85;3.1;;;;;;;5.87;98.68164;96078.18;;;;
2020/01/04 05:08:52;;;;;;;3.85;3.1;;;;;;;5.87;98.68164;96078.18;;;;
2020/01/04 05:09:52;;;;;;;3.85;3.1;;;;;;;5.87;98.68164;96078.18;;;;
2020/01/04 05:10:53;;;;;;;3.85;3.1;;;;;;;5.87;98.68164;96078.18;;;;
2020/01/04 05:11:53;;;;;;;3.85;3.1;;;;;;;5.87;98.68164;96078.18;;;;
2020/01/04 05:12:54;;;;;;;3.85;3.1;;;;;;;5.87;98.68164;96078.18;;;;
2020/01/04 05:13:54;;;;;;;3.35;2.95;;;;;;;5.87;99.05957;96104.06;;;;
2020/01/04 05:14:55;;;;;;;3.35;2.95;;;;;;;5.87;99.05957;96104.06;;;;
2020/01/04 05:15:55;;;;;;;3.35;2.95;;;;;;;5.87;99.05957;96104.06;;;;
2020/01/04 05:16:56;;;;;;;3.35;2.95;;;;;;;5.87;99.05957;96104.06;;;;
2020/01/04 05:17:56;;;;;;;3.35;2.95;;;;;;;5.87;99.05957;96104.06;;;;
2020/01/04 05:18:57;;;;;;;3.35;2.95;;;;;;;5.87;99.05957;96104.06;;;;
2020/01/04 05:19:57;;;;;;;3.35;2.95;;;;;;;5.87;99.05957;96104.06;;;;
2020/01/04 05:20:58;;;;;;;3.35;2.95;;;;;;;5.87;99.05957;96104.06;;;;
2020/01/04 05:21:58;;;;;;;3.35;2.95;;;;;;;5.87;99.05957;96104.06;;;;
2020/01/04 05:22:59;;;;;;;3.35;2.95;;;;;;;5.87;99.05957;96104.06;;;;
2020/01/04 05:23:59;;;;;;;3.35;2.95;;;;;;;5.87;99.05957;96104.06;;;;
2020/01/04 05:25:00;;;;;;;4.1;3.2;;;;;;;5.82;99.07031;96110.04;;;;
2020/01/04 05:26:00;;;;;;;4.1;3.2;;;;;;;5.82;99.07031;96110.04;;;;
2020/01/04 05:27:01;;;;;;;4.1;3.2;;;;;;;5.82;99.07031;96110.04;;;;
2020/01/04 05:28:01;;;;;;;4.1;3.2;;;;;;;5.82;99.07031;96110.04;;;;
2020/01/04 05:29:01;;;;;;;4.1;3.2;;;;;;;5.82;99.07031;96110.04;;;;
2020/01/04 05:30:04;;;;;;;4.1;3.2;;;;;;;5.82;99.07031;96110.04;;;;
2020/01/04 05:31:11;;;;;;;4.1;3.2;;;;;;;5.82;99.07031;96110.04;;;;
2020/01/04 05:35:36;;;;;;;4.05;3.15;;;;;;;5.84;99.23438;96116.92;;;;
2020/01/04 05:36:38;;;;;;;4.05;3.15;;;;;;;5.84;99.23438;96116.92;;;;
2020/01/04 05:37:38;;;;;;;4.05;3.15;;;;;;;5.84;99.23438;96116.92;;;;
2020/01/04 05:38:39;;;;;;;4.05;3.15;;;;;;;5.84;99.23438;96116.92;;;;
2020/01/04 05:39:39;;;;;;;4.05;3.15;;;;;;;5.84;99.23438;96116.92;;;;
2020/01/04 05:40:40;;;;;;;4.05;3.15;;;;;;;5.84;99.23438;96116.92;;;;
2020/01/04 05:41:40;;;;;;;4.05;3.15;;;;;;;5.84;99.23438;96116.92;;;;
2020/01/04 05:42:41;;;;;;;4.05;3.15;;;;;;;5.84;99.23438;96116.92;;;;
2020/01/04 05:43:41;;;;;;;4.05;3.15;;;;;;;5.84;99.23438;96116.92;;;;
2020/01/04 05:44:42;;;;;;;4.05;3.15;;;;;;;5.84;99.23438;96116.92;;;;
2020/01/04 05:45:42;;;;;;;4.299999;3.25;;;;;;;5.81;99.12109;96136.91;;;;
2020/01/04 05:46:43;;;;;;;4.299999;3.25;;;;;;;5.81;99.12109;96136.91;;;;
2020/01/04 05:47:43;;;;;;;4.299999;3.25;;;;;;;5.81;99.12109;96136.91;;;;
2020/01/04 05:48:44;;;;;;;4.299999;3.25;;;;;;;5.81;99.12109;96136.91;;;;
2020/01/04 05:49:44;;;;;;;4.299999;3.25;;;;;;;5.81;99.12109;96136.91;;;;
2020/01/04 05:50:45;;;;;;;4.299999;3.25;;;;;;;5.81;99.12109;96136.91;;;;
2020/01/04 05:51:45;;;;;;;4.299999;3.25;;;;;;;5.81;99.12109;96136.91;;;;
2020/01/04 05:52:46;;;;;;;4.299999;3.25;;;;;;;5.81;99.12109;96136.91;;;;
2020/01/04 05:53:46;;;;;;;4.299999;3.25;;;;;;;5.81;99.12109;96136.91;;;;
2020/01/04 05:54:47;;;;;;;4.299999;3.25;;;;;;;5.81;99.12109;96136.91;;;;